createdAt,value
2022-08-07T00:00:11.428Z,1.70
2022-08-07T00:02:44.427Z,1.60
2022-08-07T00:05:11.843Z,1.77
2022-08-07T00:07:40.070Z,2.20
2022-08-07T00:10:26.065Z,2.13
2022-08-07T00:12:59.781Z,1.67
2022-08-07T00:15:38.188Z,2.13
2022-08-07T00:18:23.879Z,1.77
2022-08-07T00:21:01.805Z,1.93
2022-08-07T00:23:32.369Z,1.80
2022-08-07T00:26:10.828Z,1.73
2022-08-07T00:28:45.691Z,1.83
2022-08-07T00:31:22.695Z,1.80
2022-08-07T00:33:49.994Z,2.07
2022-08-07T00:36:17.255Z,2.40
2022-08-07T00:38:44.261Z,2.17
2022-08-07T00:41:14.730Z,2.10
2022-08-07T00:44:00.668Z,1.70
2022-08-07T00:46:30.982Z,1.73
2022-08-07T00:49:03.443Z,1.80
2022-08-07T00:51:58.378Z,2.30
2022-08-07T00:54:19.761Z,2.00
2022-08-07T00:56:49.728Z,1.90
2022-08-07T00:59:20.107Z,2.10
2022-08-07T01:02:00.193Z,2.40
2022-08-07T01:04:30.316Z,1.80
2022-08-07T01:07:00.009Z,2.30
2022-08-07T01:10:05.259Z,1.87
2022-08-07T01:12:29.825Z,2.00
2022-08-07T01:15:04.025Z,1.90
2022-08-07T01:17:33.134Z,1.97
2022-08-07T01:20:10.376Z,2.10
2022-08-07T01:22:57.829Z,2.30
2022-08-07T01:25:40.305Z,2.63
2022-08-07T01:28:20.679Z,2.60
2022-08-07T01:30:53.058Z,2.60
2022-08-07T01:33:22.930Z,2.60
2022-08-07T01:35:54.350Z,1.90
2022-08-07T01:38:34.809Z,2.27
2022-08-07T01:41:12.225Z,2.30
2022-08-07T01:43:54.737Z,1.97
2022-08-07T01:46:22.071Z,2.10
2022-08-07T01:48:51.368Z,2.13
2022-08-07T01:52:02.175Z,2.00
2022-08-07T01:54:32.616Z,2.10
2022-08-07T01:57:08.354Z,2.03
2022-08-07T01:59:45.263Z,2.20
2022-08-07T02:03:12.387Z,2.10
2022-08-07T02:05:48.436Z,2.63
2022-08-07T02:08:24.583Z,2.47
2022-08-07T02:10:58.176Z,2.57
2022-08-07T02:13:56.655Z,2.20
2022-08-07T02:16:28.418Z,2.30
2022-08-07T02:19:05.591Z,2.27
2022-08-07T02:21:56.018Z,2.37
2022-08-07T02:24:25.544Z,2.73
2022-08-07T02:27:00.102Z,1.60
2022-08-07T02:29:31.266Z,2.00
2022-08-07T02:32:01.698Z,2.37
2022-08-07T02:34:33.131Z,2.10
2022-08-07T02:37:08.272Z,2.10
2022-08-07T02:39:43.004Z,2.03
2022-08-07T02:42:16.845Z,2.00
2022-08-07T02:44:51.041Z,2.33
2022-08-07T02:47:24.915Z,1.80
2022-08-07T02:50:00.654Z,1.97
2022-08-07T02:52:39.458Z,1.77
2022-08-07T02:55:27.979Z,1.83
2022-08-07T02:58:07.989Z,2.07
2022-08-07T03:00:40.934Z,2.07
2022-08-07T03:03:22.655Z,2.00
2022-08-07T03:05:56.327Z,1.83
2022-08-07T03:08:26.742Z,1.73
2022-08-07T03:10:57.663Z,2.40
2022-08-07T03:13:39.048Z,1.80
2022-08-07T03:16:18.333Z,1.80
2022-08-07T03:18:52.750Z,1.87
2022-08-07T03:21:22.563Z,1.90
2022-08-07T03:24:17.761Z,1.63
2022-08-07T03:26:51.339Z,2.10
2022-08-07T03:29:33.770Z,1.90
2022-08-07T03:32:07.371Z,2.00
2022-08-07T03:34:47.014Z,1.87
2022-08-07T03:37:32.485Z,1.90
2022-08-07T03:40:14.883Z,1.97
2022-08-07T03:42:52.674Z,1.97
2022-08-07T03:45:30.804Z,1.67
2022-08-07T03:48:10.028Z,1.70
2022-08-07T03:50:39.226Z,1.80
2022-08-07T03:53:11.455Z,2.17
2022-08-07T03:55:58.080Z,2.10
2022-08-07T03:59:07.272Z,1.87
2022-08-07T04:01:18.890Z,2.57
2022-08-07T04:03:55.234Z,2.30
2022-08-07T04:06:37.238Z,2.60
2022-08-07T04:09:15.863Z,2.90
2022-08-07T04:12:24.569Z,2.57
2022-08-07T04:14:38.656Z,2.50
2022-08-07T04:18:04.655Z,2.57
2022-08-07T04:20:01.358Z,2.97
2022-08-07T04:22:31.987Z,2.70
2022-08-07T04:25:11.947Z,2.40
2022-08-07T04:27:43.955Z,2.67
2022-08-07T04:30:21.462Z,2.90
2022-08-07T04:33:08.970Z,2.90
2022-08-07T04:35:39.759Z,2.87
2022-08-07T04:38:14.393Z,2.40
2022-08-07T04:40:51.705Z,2.30
2022-08-07T04:44:10.664Z,2.10
2022-08-07T04:47:03.993Z,2.27
2022-08-07T04:49:47.576Z,2.20
2022-08-07T04:52:52.110Z,2.50
2022-08-07T04:58:12.233Z,2.30
2022-08-07T04:59:17.460Z,2.33
2022-08-07T05:01:54.350Z,2.53
2022-08-07T05:04:47.351Z,2.43
2022-08-07T05:07:30.415Z,2.83
2022-08-07T05:10:06.510Z,2.73
2022-08-07T05:12:53.093Z,2.47
2022-08-07T05:15:28.010Z,2.40
2022-08-07T05:18:08.668Z,2.87
2022-08-07T05:20:43.981Z,2.40
2022-08-07T05:23:16.851Z,2.77
2022-08-07T05:26:10.403Z,2.63
2022-08-07T05:28:40.526Z,2.53
2022-08-07T05:31:14.517Z,2.60
2022-08-07T05:33:51.421Z,2.90
2022-08-07T05:36:35.354Z,2.50
2022-08-07T05:39:09.134Z,2.37
2022-08-07T05:42:02.687Z,2.53
2022-08-07T05:44:36.499Z,2.47
2022-08-07T05:47:18.116Z,2.77
2022-08-07T05:49:53.145Z,2.80
2022-08-07T05:52:29.843Z,3.10
2022-08-07T05:55:07.223Z,2.57
2022-08-07T05:57:42.346Z,2.60
2022-08-07T06:00:16.306Z,2.60
2022-08-07T06:02:53.926Z,2.50
2022-08-07T06:05:28.327Z,2.73
2022-08-07T06:08:13.535Z,2.93
2022-08-07T06:10:51.357Z,3.00
2022-08-07T06:14:10.653Z,2.90
2022-08-07T06:16:10.191Z,3.07
2022-08-07T06:18:40.387Z,3.17
2022-08-07T06:22:15.158Z,3.00
2022-08-07T06:24:46.346Z,3.03
2022-08-07T06:26:47.719Z,2.97
2022-08-07T06:29:14.776Z,2.97
2022-08-07T06:31:49.720Z,3.00
2022-08-07T06:34:25.775Z,2.30
2022-08-07T06:36:58.596Z,2.60
2022-08-07T06:40:18.365Z,2.20
2022-08-07T06:42:37.632Z,2.53
2022-08-07T06:45:11.967Z,2.20
2022-08-07T06:47:57.636Z,2.23
2022-08-07T06:50:30.864Z,2.07
2022-08-07T06:53:04.197Z,2.40
2022-08-07T06:55:53.513Z,2.13
2022-08-07T06:58:27.616Z,1.80
2022-08-07T07:01:07.268Z,1.97
2022-08-07T07:03:47.590Z,1.93
2022-08-07T07:06:23.939Z,1.60
2022-08-07T07:08:53.309Z,1.83
2022-08-07T07:12:09.682Z,1.70
2022-08-07T07:14:16.462Z,1.97
2022-08-07T07:16:50.609Z,1.90
2022-08-07T07:19:55.716Z,1.77
2022-08-07T07:22:36.639Z,1.80
2022-08-07T07:26:33.145Z,1.90
2022-08-07T07:28:29.676Z,2.00
2022-08-07T07:31:21.744Z,2.17
2022-08-07T07:33:58.840Z,2.00
2022-08-07T07:36:32.188Z,1.80
2022-08-07T07:39:01.618Z,2.30
2022-08-07T07:41:30.854Z,2.50
2022-08-07T07:44:25.707Z,2.70
2022-08-07T07:46:59.459Z,3.23
2022-08-07T07:50:36.179Z,2.93
2022-08-07T07:52:30.638Z,2.70
2022-08-07T07:54:59.527Z,2.50
2022-08-07T07:57:51.816Z,2.53
2022-08-07T08:00:20.948Z,2.57
2022-08-07T08:03:05.431Z,3.07
2022-08-07T08:05:50.807Z,2.67
2022-08-07T08:08:34.693Z,2.53
2022-08-07T08:11:08.433Z,2.53
2022-08-07T08:13:54.929Z,2.40
2022-08-07T08:16:35.232Z,2.60
2022-08-07T08:19:18.064Z,2.67
2022-08-07T08:22:12.633Z,2.03
2022-08-07T08:25:09.586Z,2.27
2022-08-07T08:27:56.380Z,2.23
2022-08-07T08:30:26.229Z,2.43
2022-08-07T08:32:57.036Z,1.80
2022-08-07T08:35:28.898Z,2.17
2022-08-07T08:38:09.905Z,2.43
2022-08-07T08:40:43.924Z,2.20
2022-08-07T08:43:42.830Z,1.93
2022-08-07T08:46:41.186Z,2.17
2022-08-07T08:50:04.500Z,2.40
2022-08-07T08:52:40.744Z,2.23
2022-08-07T08:55:53.339Z,2.70
2022-08-07T08:58:34.262Z,2.60
2022-08-07T09:01:43.944Z,2.43
2022-08-07T09:04:16.628Z,2.10
2022-08-07T09:06:52.808Z,2.37
2022-08-07T09:09:36.614Z,2.40
2022-08-07T09:12:20.051Z,2.10
2022-08-07T09:16:22.439Z,2.20
2022-08-07T09:18:34.995Z,1.93
2022-08-07T09:21:33.775Z,1.80
2022-08-07T09:25:00.260Z,1.63
2022-08-07T09:27:59.544Z,1.80
2022-08-07T09:30:30.139Z,1.90
2022-08-07T09:33:40.717Z,1.90
2022-08-07T09:36:15.337Z,1.93
2022-08-07T09:38:59.112Z,1.70
2022-08-07T09:41:58.984Z,1.90
2022-08-07T09:47:33.646Z,1.97
2022-08-07T09:48:02.398Z,1.63
2022-08-07T09:50:56.332Z,2.10
2022-08-07T09:53:41.180Z,1.50
2022-08-07T09:56:46.418Z,1.97
2022-08-07T09:59:34.566Z,1.60
2022-08-07T10:02:29.457Z,1.80
2022-08-07T10:05:00.282Z,1.93
2022-08-07T10:08:05.717Z,1.80
2022-08-07T10:12:00.001Z,2.60
2022-08-07T10:14:23.069Z,1.93
2022-08-07T10:17:21.747Z,1.90
2022-08-07T10:20:22.001Z,1.83
2022-08-07T10:23:16.891Z,1.60
2022-08-07T10:26:24.679Z,1.70
2022-08-07T10:29:00.848Z,1.47
2022-08-07T10:31:39.782Z,1.80
2022-08-07T10:34:47.536Z,1.80
2022-08-07T10:38:00.328Z,1.43
2022-08-07T10:40:13.975Z,1.77
2022-08-07T10:43:07.392Z,1.33
2022-08-07T10:45:57.558Z,1.50
2022-08-07T10:48:35.451Z,1.90
2022-08-07T10:51:57.662Z,2.20
2022-08-07T10:54:32.202Z,1.43
2022-08-07T10:57:34.799Z,1.83
2022-08-07T11:00:02.063Z,1.67
2022-08-07T11:02:53.636Z,2.47
2022-08-07T11:05:50.364Z,2.07
2022-08-07T11:08:31.611Z,1.60
2022-08-07T11:11:10.638Z,1.90
2022-08-07T11:14:43.827Z,1.77
2022-08-07T11:16:52.775Z,1.63
2022-08-07T11:19:32.015Z,1.30
2022-08-07T11:22:26.630Z,1.53
2022-08-07T11:25:11.333Z,1.40
2022-08-07T11:28:04.192Z,1.20
2022-08-07T11:30:57.988Z,1.10
2022-08-07T11:34:00.368Z,1.37
2022-08-07T11:36:43.850Z,1.40
2022-08-07T11:39:14.489Z,1.27
2022-08-07T11:42:02.210Z,1.20
2022-08-07T11:44:57.619Z,1.10
2022-08-07T11:48:18.323Z,1.20
2022-08-07T11:51:41.623Z,1.10
2022-08-07T11:54:25.380Z,1.10
2022-08-07T11:57:57.658Z,1.17
2022-08-07T12:00:19.693Z,1.00
2022-08-07T12:02:57.295Z,1.00
2022-08-07T12:05:49.037Z,0.90
2022-08-07T12:08:31.928Z,0.70
2022-08-07T12:11:21.046Z,0.70
2022-08-07T12:13:55.224Z,0.70
2022-08-07T12:16:37.634Z,1.03
2022-08-07T12:19:35.661Z,1.70
2022-08-07T12:22:58.591Z,0.60
2022-08-07T12:26:05.623Z,0.63
2022-08-07T12:28:59.165Z,0.60
2022-08-07T12:31:52.817Z,1.17
2022-08-07T12:34:29.567Z,1.37
2022-08-07T12:36:57.847Z,1.37
2022-08-07T12:39:44.823Z,1.20
2022-08-07T12:42:27.350Z,1.30
2022-08-07T12:44:59.096Z,1.00
2022-08-07T12:47:50.214Z,1.00
2022-08-07T12:50:39.428Z,1.10
2022-08-07T12:54:23.971Z,1.07
2022-08-07T12:56:39.633Z,1.10
2022-08-07T12:59:08.739Z,0.90
2022-08-07T13:02:25.006Z,1.00
2022-08-07T13:06:03.857Z,1.00
2022-08-07T13:08:23.524Z,0.90
2022-08-07T13:11:31.035Z,1.10
2022-08-07T13:14:37.195Z,1.10
2022-08-07T13:17:41.216Z,1.40
2022-08-07T13:20:21.731Z,1.73
2022-08-07T13:24:02.854Z,1.40
2022-08-07T13:26:25.593Z,1.70
2022-08-07T13:28:59.034Z,2.30
2022-08-07T13:31:54.962Z,2.60
2022-08-07T13:34:44.551Z,1.50
2022-08-07T13:37:30.828Z,1.60
2022-08-07T13:40:35.412Z,1.83
2022-08-07T13:43:13.380Z,1.47
2022-08-07T13:46:11.379Z,2.00
2022-08-07T13:48:40.702Z,1.43
2022-08-07T13:51:27.316Z,1.60
2022-08-07T13:54:07.556Z,1.80
2022-08-07T13:56:40.895Z,1.73
2022-08-07T13:59:27.110Z,1.70
2022-08-07T14:02:14.063Z,1.50
2022-08-07T14:05:00.733Z,1.73
2022-08-07T14:07:31.602Z,1.70
2022-08-07T14:10:17.623Z,1.77
2022-08-07T14:12:58.727Z,1.80
2022-08-07T14:15:42.799Z,1.63
2022-08-07T14:18:29.303Z,1.70
2022-08-07T14:21:21.111Z,1.60
2022-08-07T14:24:09.609Z,1.67
2022-08-07T14:26:57.342Z,1.57
2022-08-07T14:30:05.562Z,1.80
2022-08-07T14:32:19.844Z,1.80
2022-08-07T14:34:49.746Z,1.70
2022-08-07T14:37:23.860Z,1.67
2022-08-07T14:40:16.164Z,1.80
2022-08-07T14:45:54.797Z,1.60
2022-08-07T14:48:27.583Z,1.77
2022-08-07T14:50:58.137Z,1.80
2022-08-07T14:59:14.060Z,2.57
2022-08-07T15:02:33.211Z,1.83
2022-08-07T15:04:57.994Z,1.97
2022-08-07T15:07:51.005Z,2.23
2022-08-07T15:13:25.296Z,2.00
2022-08-07T15:16:00.693Z,2.47
2022-08-07T15:18:41.571Z,2.30
2022-08-07T15:25:13.969Z,2.30
2022-08-07T15:27:24.344Z,2.27
2022-08-07T15:30:04.746Z,2.13
2022-08-07T15:33:01.190Z,2.00
2022-08-07T15:38:31.027Z,2.30
2022-08-07T15:41:24.126Z,1.80
2022-08-07T15:44:10.125Z,1.90
2022-08-07T15:46:47.414Z,2.13
2022-08-07T15:50:05.022Z,1.83
2022-08-07T15:52:30.674Z,2.00
2022-08-07T15:55:02.732Z,2.50
2022-08-07T15:57:47.294Z,2.07
2022-08-07T16:00:31.897Z,1.90
2022-08-07T16:03:46.334Z,1.87
2022-08-07T16:06:13.040Z,1.90
2022-08-07T16:08:47.360Z,2.10
2022-08-07T16:11:40.221Z,2.00
2022-08-07T16:14:53.841Z,1.93
2022-08-07T16:18:01.374Z,5.80
2022-08-07T16:20:33.702Z,1.70
2022-08-07T16:23:53.485Z,1.80
2022-08-07T16:26:30.445Z,1.57
2022-08-07T16:30:07.091Z,1.50
2022-08-07T16:32:32.812Z,1.83
2022-08-07T16:35:00.970Z,1.70
2022-08-07T16:38:05.832Z,1.67
2022-08-07T16:41:06.655Z,1.27
2022-08-07T16:44:46.324Z,1.50
2022-08-07T16:47:42.267Z,1.70
2022-08-07T16:51:13.474Z,1.20
2022-08-07T16:54:01.381Z,1.37
2022-08-07T16:56:32.730Z,1.20
2022-08-07T16:59:14.537Z,1.50
2022-08-07T17:02:02.938Z,1.17
2022-08-07T17:04:58.513Z,1.03
2022-08-07T17:07:55.489Z,1.17
2022-08-07T17:10:39.240Z,1.07
2022-08-07T17:13:24.795Z,1.20
2022-08-07T17:16:16.342Z,1.20
2022-08-07T17:19:16.436Z,1.00
2022-08-07T17:21:51.711Z,1.00
2022-08-07T17:24:34.660Z,0.87
2022-08-07T17:27:08.843Z,1.03
2022-08-07T17:30:14.531Z,0.90
2022-08-07T17:33:39.214Z,0.80
2022-08-07T17:36:20.395Z,1.00
2022-08-07T17:39:19.897Z,0.87
2022-08-07T17:42:03.879Z,0.80
2022-08-07T17:44:46.942Z,0.60
2022-08-07T17:47:42.880Z,0.60
2022-08-07T17:50:49.620Z,0.63
2022-08-07T17:54:01.360Z,0.60
2022-08-07T17:56:49.733Z,0.60
2022-08-07T17:59:44.852Z,0.80
2022-08-07T18:02:17.596Z,0.60
2022-08-07T18:05:20.836Z,0.60
2022-08-07T18:08:24.418Z,0.70
2022-08-07T18:12:07.938Z,0.70
2022-08-07T18:14:31.631Z,1.20
2022-08-07T18:17:05.298Z,1.43
2022-08-07T18:21:12.715Z,0.90
2022-08-07T18:22:45.763Z,0.70
2022-08-07T18:25:39.130Z,0.60
2022-08-07T18:28:34.100Z,0.60
2022-08-07T18:31:18.553Z,0.50
2022-08-07T18:34:37.580Z,0.73
2022-08-07T18:38:56.751Z,0.67
2022-08-07T18:40:57.729Z,0.50
2022-08-07T18:43:42.901Z,0.60
2022-08-07T18:46:27.402Z,0.70
2022-08-07T18:50:31.269Z,1.00
2022-08-07T18:52:37.612Z,0.57
2022-08-07T18:55:42.745Z,0.60
2022-08-07T18:58:42.762Z,0.70
2022-08-07T19:01:58.888Z,0.70
2022-08-07T19:04:03.962Z,0.43
2022-08-07T19:06:52.906Z,0.77
2022-08-07T19:09:55.306Z,0.70
2022-08-07T19:12:26.335Z,0.70
2022-08-07T19:14:56.568Z,0.50
2022-08-07T19:18:03.960Z,0.77
2022-08-07T19:20:30.983Z,1.10
2022-08-07T19:23:18.389Z,1.17
2022-08-07T19:26:23.846Z,1.13
2022-08-07T19:30:55.676Z,1.23
2022-08-07T19:32:07.799Z,0.53
2022-08-07T19:34:47.941Z,0.90
2022-08-07T19:37:18.550Z,0.70
2022-08-07T19:40:02.259Z,0.70
2022-08-07T19:42:31.781Z,0.60
2022-08-07T19:45:12.956Z,0.70
2022-08-07T19:47:59.927Z,0.83
2022-08-07T19:50:43.753Z,0.83
2022-08-07T19:54:44.437Z,0.70
2022-08-07T19:56:15.172Z,0.70
2022-08-07T19:58:57.927Z,0.50
2022-08-07T20:01:56.266Z,0.70
2022-08-07T20:04:31.976Z,0.93
2022-08-07T20:07:09.186Z,0.70
2022-08-07T20:10:34.150Z,0.57
2022-08-07T20:12:36.156Z,0.70
2022-08-07T20:15:15.573Z,0.63
2022-08-07T20:17:56.370Z,1.73
2022-08-07T20:20:34.971Z,1.23
2022-08-07T20:23:23.247Z,2.00
2022-08-07T20:26:04.585Z,1.80
2022-08-07T20:28:39.867Z,1.40
2022-08-07T20:31:21.229Z,1.30
2022-08-07T20:33:56.742Z,1.30
2022-08-07T20:36:28.485Z,0.80
2022-08-07T20:39:00.834Z,1.00
2022-08-07T20:41:48.375Z,1.00
2022-08-07T20:44:16.382Z,0.80
2022-08-07T20:46:46.811Z,1.00
2022-08-07T20:49:59.635Z,0.80
2022-08-07T20:52:30.228Z,7.70
2022-08-07T20:55:12.458Z,1.60
2022-08-07T20:57:51.380Z,0.90
2022-08-07T21:00:42.947Z,0.80
2022-08-07T21:03:16.891Z,0.87
2022-08-07T21:05:56.596Z,0.77
2022-08-07T21:08:41.237Z,1.00
2022-08-07T21:11:12.261Z,0.90
2022-08-07T21:14:29.375Z,0.80
2022-08-07T21:17:06.543Z,0.80
2022-08-07T21:19:51.707Z,1.20
2022-08-07T21:22:33.446Z,1.20
2022-08-07T21:25:04.788Z,0.73
2022-08-07T21:28:10.847Z,1.20
2022-08-07T21:30:55.065Z,1.07
2022-08-07T21:33:41.153Z,1.13
2022-08-07T21:36:11.846Z,0.80
2022-08-07T21:39:47.120Z,0.90
2022-08-07T21:45:42.113Z,1.13
2022-08-07T21:48:48.260Z,0.90
2022-08-07T21:51:57.871Z,1.77
2022-08-07T21:54:38.319Z,3.23
2022-08-07T21:57:40.090Z,1.83
2022-08-07T22:00:22.346Z,1.23
2022-08-07T22:02:53.252Z,1.13
2022-08-07T22:05:45.862Z,1.10
2022-08-07T22:08:14.362Z,1.00
2022-08-07T22:10:53.960Z,1.53
2022-08-07T22:13:52.353Z,1.33
2022-08-07T22:16:38.947Z,0.93
2022-08-07T22:19:29.436Z,1.30
2022-08-07T22:22:28.573Z,1.87
2022-08-07T22:25:03.240Z,1.70
2022-08-07T22:27:34.065Z,1.30
2022-08-07T22:30:21.286Z,1.30
2022-08-07T22:33:12.528Z,1.10
2022-08-07T22:35:58.309Z,1.00
2022-08-07T22:38:31.886Z,1.10
2022-08-07T22:41:02.943Z,1.20
2022-08-07T22:43:36.818Z,1.30
2022-08-07T22:46:43.166Z,1.17
2022-08-07T22:49:15.880Z,1.03
2022-08-07T22:51:52.093Z,1.30
2022-08-07T22:54:31.678Z,1.10
2022-08-07T22:57:32.341Z,1.30
2022-08-07T23:00:04.528Z,1.40
2022-08-07T23:02:41.500Z,1.30
2022-08-07T23:06:15.061Z,1.50
2022-08-07T23:08:24.207Z,1.53
2022-08-07T23:11:16.699Z,1.37
2022-08-07T23:14:15.033Z,1.40
2022-08-07T23:16:54.960Z,1.10
2022-08-07T23:19:57.916Z,1.10
2022-08-07T23:22:34.052Z,1.30
2022-08-07T23:25:07.066Z,1.63
2022-08-07T23:28:22.923Z,1.20
2022-08-07T23:32:50.342Z,3.43
2022-08-07T23:34:34.650Z,2.90
2022-08-07T23:37:29.670Z,1.90
2022-08-07T23:40:14.670Z,1.23
2022-08-07T23:43:17.440Z,1.50
2022-08-07T23:46:10.828Z,1.57
2022-08-07T23:49:15.814Z,1.43
2022-08-07T23:52:58.451Z,1.40
2022-08-07T23:54:58.338Z,1.20
2022-08-07T23:57:55.764Z,1.20
